createdAt,value
2018-07-12T00:03:11.205Z,14.9
2018-07-12T00:08:11.214Z,14.9
2018-07-12T00:13:11.228Z,14.8
2018-07-12T00:18:11.426Z,14.8
2018-07-12T00:23:11.877Z,14.7
2018-07-12T00:28:11.781Z,14.6
2018-07-12T00:33:24.219Z,14.6
2018-07-12T00:38:23.964Z,14.5
2018-07-12T00:43:23.956Z,14.5
2018-07-12T00:48:24.090Z,14.5
2018-07-12T00:53:23.968Z,14.3
2018-07-12T00:58:23.969Z,14.3
2018-07-12T01:03:23.917Z,14.2
2018-07-12T01:08:24.460Z,14
2018-07-12T01:13:24.184Z,14
2018-07-12T01:18:36.394Z,14
2018-07-12T01:23:35.926Z,14
2018-07-12T01:28:36.122Z,13.9
2018-07-12T01:33:37.199Z,13.9
2018-07-12T01:38:35.976Z,13.9
2018-07-12T01:43:36.134Z,13.9
2018-07-12T01:48:35.985Z,13.8
2018-07-12T01:53:38.186Z,13.7
2018-07-12T01:58:38.066Z,13.6
2018-07-12T02:03:47.917Z,13.6
2018-07-12T02:08:47.778Z,13.6
2018-07-12T02:13:47.829Z,13.6
2018-07-12T02:18:47.868Z,13.5
2018-07-12T02:23:47.647Z,13.5
2018-07-12T02:28:47.821Z,13.4
2018-07-12T02:33:47.845Z,13.5
2018-07-12T02:38:47.802Z,13.5
2018-07-12T02:43:47.755Z,13.4
2018-07-12T02:48:59.973Z,13.4
2018-07-12T02:53:59.870Z,13.4
2018-07-12T02:58:59.913Z,13.3
2018-07-12T03:03:59.953Z,13.3
2018-07-12T03:08:59.714Z,13.2
2018-07-12T03:13:59.734Z,13.2
2018-07-12T03:18:59.837Z,13.1
2018-07-12T03:23:59.912Z,13.1
2018-07-12T03:28:59.900Z,13.1
2018-07-12T03:34:11.720Z,13.2
2018-07-12T03:39:11.647Z,13.1
2018-07-12T03:44:11.404Z,13.1
2018-07-12T03:49:11.450Z,13.1
2018-07-12T03:54:11.463Z,13.1
2018-07-12T03:59:11.392Z,13.1
2018-07-12T04:04:11.428Z,13.2
2018-07-12T04:09:11.463Z,13.3
2018-07-12T04:14:11.473Z,13.5
2018-07-12T04:19:23.275Z,13.7
2018-07-12T04:24:23.017Z,13.9
2018-07-12T04:29:22.970Z,14.2
2018-07-12T04:34:23.013Z,14.4
2018-07-12T04:39:23.017Z,14.6
2018-07-12T04:44:23.141Z,14.8
2018-07-12T04:49:23.181Z,14.9
2018-07-12T04:54:23.452Z,15.2
2018-07-12T04:59:23.178Z,15.5
2018-07-12T05:04:35.602Z,15.7
2018-07-12T05:09:35.333Z,16
2018-07-12T05:14:35.420Z,16.3
2018-07-12T05:19:35.331Z,16.6
2018-07-12T05:24:35.512Z,16.8
2018-07-12T05:29:35.363Z,17.1
2018-07-12T05:34:35.441Z,17.3
2018-07-12T05:39:35.351Z,17.3
2018-07-12T05:44:35.554Z,17.3
2018-07-12T05:49:35.482Z,17.3
2018-07-12T05:54:35.489Z,17.4
2018-07-12T05:59:35.484Z,17.3
2018-07-12T06:04:35.489Z,17.3
2018-07-12T06:09:35.712Z,17.4
2018-07-12T06:14:47.351Z,17.4
2018-07-12T06:19:47.238Z,17.4
2018-07-12T06:24:47.302Z,17.5
2018-07-12T06:29:47.210Z,17.5
2018-07-12T06:34:47.016Z,17.6
2018-07-12T06:39:47.724Z,17.7
2018-07-12T06:44:47.613Z,17.8
2018-07-12T06:49:47.478Z,18
2018-07-12T06:54:47.416Z,17.9
2018-07-12T06:59:47.621Z,18
2018-07-12T07:04:47.658Z,18.2
2018-07-12T07:09:47.473Z,18.3
2018-07-12T07:14:50.604Z,18.4
2018-07-12T07:19:50.257Z,18.5
2018-07-12T07:24:59.621Z,18.6
2018-07-12T07:29:59.366Z,19.1
2018-07-12T07:34:59.368Z,18.8
2018-07-12T07:39:59.385Z,19.3
2018-07-12T07:44:59.608Z,19.9
2018-07-12T07:49:59.542Z,20.3
2018-07-12T07:54:59.569Z,20.4
2018-07-12T08:00:02.097Z,20.9
2018-07-12T08:05:02.086Z,21.5
2018-07-12T08:10:13.352Z,21.9
2018-07-12T08:15:13.105Z,21.9
2018-07-12T08:20:13.153Z,22.2
2018-07-12T08:25:13.084Z,22.2
2018-07-12T08:30:13.090Z,22.3
2018-07-12T08:35:13.144Z,22.3
2018-07-12T08:40:12.977Z,22.9
2018-07-12T08:45:13.556Z,23.2
2018-07-12T08:50:13.476Z,23.5
2018-07-12T08:55:25.480Z,23.2
2018-07-12T09:00:25.391Z,22.9
2018-07-12T09:05:25.429Z,23
2018-07-12T09:10:25.205Z,23.4
2018-07-12T09:15:25.226Z,23.7
2018-07-12T09:20:25.447Z,23.8
2018-07-12T09:25:25.261Z,24.1
2018-07-12T09:30:30.016Z,24.2
2018-07-12T09:35:29.610Z,24.7
2018-07-12T09:40:39.413Z,23.7
2018-07-12T09:45:39.326Z,24.2
2018-07-12T09:50:39.251Z,24.4
2018-07-12T09:55:39.402Z,24.4
2018-07-12T10:00:39.135Z,23.7
2018-07-12T10:05:39.372Z,24.3
2018-07-12T10:10:39.371Z,23.7
2018-07-12T10:15:42.342Z,24.7
2018-07-12T10:20:42.343Z,25
2018-07-12T10:25:52.565Z,24.2
2018-07-12T10:30:52.434Z,23.6
2018-07-12T10:35:52.480Z,24.3
2018-07-12T10:40:52.503Z,24.3
2018-07-12T10:45:52.397Z,24
2018-07-12T10:50:52.402Z,24
2018-07-12T10:55:52.515Z,24.3
2018-07-12T11:00:52.947Z,24.4
2018-07-12T11:05:52.890Z,24.5
2018-07-12T11:11:05.235Z,24.4
2018-07-12T11:16:04.948Z,24.3
2018-07-12T11:21:05.125Z,24.4
2018-07-12T11:26:05.046Z,24.6
2018-07-12T11:31:05.085Z,24.1
2018-07-12T11:36:04.966Z,24.1
2018-07-12T11:41:05.075Z,24.1
2018-07-12T11:46:05.119Z,24.5
2018-07-12T11:51:04.971Z,24.7
2018-07-12T11:56:04.978Z,24.3
2018-07-12T12:01:04.971Z,24.5
2018-07-12T12:06:05.085Z,24.6
2018-07-12T12:11:07.804Z,24.4
2018-07-12T12:16:07.532Z,25
2018-07-12T12:21:17.248Z,24.7
2018-07-12T12:26:16.980Z,24.7
2018-07-12T12:31:17.116Z,25.6
2018-07-12T12:36:16.965Z,25.2
2018-07-12T12:41:17.182Z,25.8
2018-07-12T12:46:16.987Z,25.2
2018-07-12T12:51:16.982Z,25.1
2018-07-12T12:56:16.982Z,25.1
2018-07-12T13:01:17.094Z,25.1
2018-07-12T13:06:28.947Z,24.8
2018-07-12T13:11:28.861Z,25.1
2018-07-12T13:16:28.657Z,25.2
2018-07-12T13:21:28.666Z,24.8
2018-07-12T13:26:28.854Z,25.1
2018-07-12T13:31:28.661Z,25.2
2018-07-12T13:36:28.667Z,25.3
2018-07-12T13:41:28.852Z,25.6
2018-07-12T13:46:28.663Z,25.6
2018-07-12T13:51:28.806Z,25.3
2018-07-12T13:56:28.860Z,25.6
2018-07-12T14:01:30.203Z,25.8
2018-07-12T14:06:29.076Z,25.8
2018-07-12T14:11:28.787Z,25.3
2018-07-12T14:16:41.166Z,25.6
2018-07-12T14:21:41.115Z,25.7
2018-07-12T14:26:40.859Z,25.4
2018-07-12T14:31:41.156Z,25.2
2018-07-12T14:36:41.311Z,25.2
2018-07-12T14:41:41.163Z,25.3
2018-07-12T14:46:41.389Z,25.2
2018-07-12T14:51:41.709Z,24.9
2018-07-12T14:56:41.652Z,25.3
2018-07-12T15:01:54.080Z,25.3
2018-07-12T15:06:53.901Z,24.7
2018-07-12T15:11:53.923Z,25.2
2018-07-12T15:16:53.842Z,24.8
2018-07-12T15:21:53.874Z,24.9
2018-07-12T15:26:53.750Z,24.8
2018-07-12T15:31:53.752Z,24.7
2018-07-12T15:36:53.794Z,25.1
2018-07-12T15:41:53.883Z,24.7
2018-07-12T15:46:53.774Z,24.7
2018-07-12T15:51:53.771Z,24.7
2018-07-12T15:56:53.931Z,24.6
2018-07-12T16:01:54.486Z,24.4
2018-07-12T16:06:54.152Z,24.5
2018-07-12T16:12:06.792Z,24.3
2018-07-12T16:17:06.533Z,24.3
2018-07-12T16:22:06.508Z,24.3
2018-07-12T16:27:06.749Z,24.4
2018-07-12T16:32:06.654Z,24.3
2018-07-12T16:37:06.557Z,24.2
2018-07-12T16:42:06.542Z,24.2
2018-07-12T16:47:06.543Z,24.2
2018-07-12T16:52:06.545Z,24.3
2018-07-12T16:57:19.409Z,24.3
2018-07-12T17:02:19.128Z,24.2
2018-07-12T17:07:19.317Z,24.1
2018-07-12T17:12:19.327Z,24
2018-07-12T17:17:19.115Z,23.9
2018-07-12T17:22:19.148Z,23.7
2018-07-12T17:27:19.335Z,23.7
2018-07-12T17:32:19.329Z,23.6
2018-07-12T17:37:19.353Z,23.5
2018-07-12T17:42:19.665Z,23.5
2018-07-12T17:47:19.438Z,23.4
2018-07-12T17:52:19.419Z,23.4
2018-07-12T17:57:19.589Z,23.4
2018-07-12T18:02:19.581Z,23.4
2018-07-12T18:07:31.635Z,23.5
2018-07-12T18:12:31.357Z,23.3
2018-07-12T18:17:31.565Z,23.1
2018-07-12T18:22:32.420Z,22.9
2018-07-12T18:27:31.376Z,22.8
2018-07-12T18:32:31.375Z,22.6
2018-07-12T18:37:31.376Z,22.6
2018-07-12T18:42:31.455Z,22.5
2018-07-12T18:47:31.669Z,22.3
2018-07-12T18:52:43.685Z,22.1
2018-07-12T18:57:43.619Z,21.9
2018-07-12T19:02:43.676Z,21.7
2018-07-12T19:07:43.417Z,21.4
2018-07-12T19:12:43.443Z,21.2
2018-07-12T19:17:43.433Z,21
2018-07-12T19:22:43.582Z,20.9
2018-07-12T19:27:43.400Z,20.7
2018-07-12T19:32:43.450Z,20.6
2018-07-12T19:37:43.559Z,20.4
2018-07-12T19:42:43.461Z,20.2
2018-07-12T19:47:43.419Z,20
2018-07-12T19:52:44.530Z,19.9
2018-07-12T19:57:44.293Z,19.6
2018-07-12T20:02:56.773Z,19.6
2018-07-12T20:07:56.529Z,19.3
2018-07-12T20:12:56.482Z,19.2
2018-07-12T20:17:56.549Z,19.1
2018-07-12T20:22:56.598Z,19.2
2018-07-12T20:27:56.903Z,19
2018-07-12T20:32:56.527Z,18.9
2018-07-12T20:38:00.799Z,18.8
2018-07-12T20:43:00.558Z,18.7
2018-07-12T20:48:13.350Z,18.6
2018-07-12T20:53:12.996Z,18.5
2018-07-12T20:58:13.195Z,18.4
2018-07-12T21:03:13.227Z,18.2
2018-07-12T21:08:12.963Z,18.1
2018-07-12T21:13:12.997Z,18.1
2018-07-12T21:18:13.020Z,17.8
2018-07-12T21:23:14.299Z,17.8
2018-07-12T21:28:14.007Z,17.8
2018-07-12T21:33:26.838Z,17.7
2018-07-12T21:38:26.375Z,17.6
2018-07-12T21:43:26.372Z,17.5
2018-07-12T21:48:26.399Z,17.5
2018-07-12T21:53:26.386Z,17.5
2018-07-12T21:58:26.559Z,17.5
2018-07-12T22:03:26.388Z,17.3
2018-07-12T22:08:26.408Z,17.3
2018-07-12T22:13:26.605Z,17.1
2018-07-12T22:18:38.627Z,17
2018-07-12T22:23:38.081Z,17.1
2018-07-12T22:28:38.119Z,16.8
2018-07-12T22:33:38.124Z,16.9
2018-07-12T22:38:38.353Z,16.8
2018-07-12T22:43:38.400Z,16.9
2018-07-12T22:48:38.168Z,16.8
2018-07-12T22:53:39.055Z,16.6
2018-07-12T22:58:38.997Z,16.5
2018-07-12T23:03:52.923Z,16.4
2018-07-12T23:08:52.664Z,16.3
2018-07-12T23:13:52.668Z,16.4
2018-07-12T23:18:52.854Z,16.3
2018-07-12T23:23:53.097Z,16.3
2018-07-12T23:28:52.888Z,16.2
2018-07-12T23:33:52.898Z,16.2
2018-07-12T23:38:52.901Z,16.1
2018-07-12T23:43:53.028Z,16.1
2018-07-12T23:49:04.847Z,16.2
2018-07-12T23:54:04.743Z,16.2
2018-07-12T23:59:04.694Z,16.1
